Time,TemperatureF,DewpointF,PressureIn,WindDirection,WindDirectionDegrees,WindSpeedMPH,WindSpeedGustMPH,Humidity,HourlyPrecipIn,Conditions,Clouds,dailyrainin,SoftwareType,DateUTC
2013-08-03 00:12:00,57.7,55.0,20.48,South,175,3.0,10.0,90,0.09,,,0.03,weatherlink.com 1.10,2013-08-03 06:12:00,
2013-08-03 00:27:00,57.8,55.0,20.47,SSE,163,3.0,12.0,89,0.10,,,0.05,weatherlink.com 1.10,2013-08-03 06:27:00,
2013-08-03 00:42:00,57.9,55.0,20.46,SSE,160,0.0,4.0,91,0.08,,,0.05,weatherlink.com 1.10,2013-08-03 06:42:00,
2013-08-03 00:57:00,57.7,55.0,20.45,SSE,160,0.0,3.0,91,0.05,,,0.05,weatherlink.com 1.10,2013-08-03 06:57:00,
2013-08-03 01:12:00,57.7,55.0,20.45,SSE,160,2.0,3.0,92,0.02,,,0.05,weatherlink.com 1.10,2013-08-03 07:12:00,
2013-08-03 01:27:00,57.5,55.0,20.44,SSE,160,0.0,0.0,92,0.00,,,0.05,weatherlink.com 1.10,2013-08-03 07:27:00,
2013-08-03 01:42:00,57.5,56.0,20.42,SSE,160,0.0,0.0,93,0.00,,,0.05,weatherlink.com 1.10,2013-08-03 07:42:00,
2013-08-03 01:57:00,57.3,55.0,20.41,SSE,160,1.0,2.0,92,0.00,,,0.05,weatherlink.com 1.10,2013-08-03 07:57:00,
2013-08-03 02:12:00,57.0,55.0,20.41,SSE,160,0.0,2.0,92,0.00,,,0.05,weatherlink.com 1.10,2013-08-03 08:12:00,
2013-08-03 02:27:00,57.0,55.0,20.41,SSE,160,0.0,1.0,92,0.00,,,0.05,weatherlink.com 1.10,2013-08-03 08:27:00,
2013-08-03 02:42:00,56.9,55.0,20.41,SSE,160,0.0,0.0,92,0.00,,,0.05,weatherlink.com 1.10,2013-08-03 08:42:00,
2013-08-03 02:57:00,57.1,55.0,20.41,SSE,160,0.0,0.0,93,0.00,,,0.05,weatherlink.com 1.10,2013-08-03 08:57:00,
2013-08-03 03:12:00,57.0,55.0,20.41,SSE,160,2.0,2.0,93,0.00,,,0.05,weatherlink.com 1.10,2013-08-03 09:12:00,
2013-08-03 03:27:00,56.8,55.0,20.40,SSE,160,0.0,0.0,93,0.00,,,0.05,weatherlink.com 1.10,2013-08-03 09:27:00,
2013-08-03 03:42:00,56.6,55.0,20.40,SSE,160,0.0,1.0,93,0.00,,,0.05,weatherlink.com 1.10,2013-08-03 09:42:00,
2013-08-03 03:57:00,56.2,54.0,20.39,SSE,160,0.0,2.0,92,0.00,,,0.05,weatherlink.com 1.10,2013-08-03 09:57:00,
2013-08-03 04:12:00,56.3,54.0,20.39,SSE,160,0.0,1.0,93,0.01,,,0.06,weatherlink.com 1.10,2013-08-03 10:12:00,
2013-08-03 04:27:00,56.3,54.0,20.40,SSE,160,0.0,0.0,93,0.01,,,0.06,weatherlink.com 1.10,2013-08-03 10:27:00,
2013-08-03 04:42:00,56.5,55.0,20.40,SSE,160,0.0,3.0,93,0.01,,,0.06,weatherlink.com 1.10,2013-08-03 10:42:00,
2013-08-03 04:57:00,56.4,55.0,20.40,SSE,160,0.0,3.0,93,0.01,,,0.06,weatherlink.com 1.10,2013-08-03 10:57:00,
2013-08-03 05:12:00,56.3,54.0,20.40,SSE,160,0.0,2.0,93,0.00,,,0.06,weatherlink.com 1.10,2013-08-03 11:12:00,
2013-08-03 05:27:00,56.3,54.0,20.40,SSE,160,0.0,2.0,93,0.00,,,0.06,weatherlink.com 1.10,2013-08-03 11:27:00,
2013-08-03 05:42:00,56.2,54.0,20.41,SSE,160,0.0,3.0,93,0.00,,,0.06,weatherlink.com 1.10,2013-08-03 11:42:00,
2013-08-03 05:57:00,56.0,54.0,20.41,SSE,160,0.0,0.0,93,0.00,,,0.06,weatherlink.com 1.10,2013-08-03 11:57:00,
2013-08-03 06:12:00,55.6,53.0,20.41,SSE,160,1.0,3.0,92,0.00,,,0.06,weatherlink.com 1.10,2013-08-03 12:12:00,
2013-08-03 06:27:00,55.1,53.0,20.42,SSE,160,0.0,1.0,92,0.00,,,0.06,weatherlink.com 1.10,2013-08-03 12:27:00,
2013-08-03 06:42:00,55.0,53.0,20.42,SSE,160,0.0,3.0,92,0.00,,,0.06,weatherlink.com 1.10,2013-08-03 12:42:00,
2013-08-03 06:57:00,54.9,53.0,20.43,SSE,160,0.0,3.0,92,0.00,,,0.06,weatherlink.com 1.10,2013-08-03 12:57:00,
2013-08-03 07:12:00,56.2,54.0,20.43,SSE,160,0.0,2.0,93,0.00,,,0.06,weatherlink.com 1.10,2013-08-03 13:12:00,
2013-08-03 07:27:00,57.3,55.0,20.43,SSE,160,0.0,2.0,91,0.00,,,0.06,weatherlink.com 1.10,2013-08-03 13:27:00,
2013-08-03 07:42:00,58.2,56.0,20.43,SSE,160,0.0,1.0,91,0.00,,,0.06,weatherlink.com 1.10,2013-08-03 13:42:00,
2013-08-03 07:57:00,59.0,56.0,20.43,SSE,160,0.0,1.0,89,0.00,,,0.06,weatherlink.com 1.10,2013-08-03 13:57:00,
2013-08-03 08:12:00,59.9,56.0,20.44,SSE,160,1.0,1.0,88,0.00,,,0.06,weatherlink.com 1.10,2013-08-03 14:12:00,
2013-08-03 08:27:00,60.8,57.0,20.44,SSE,160,0.0,2.0,86,0.00,,,0.06,weatherlink.com 1.10,2013-08-03 14:27:00,
2013-08-03 08:42:00,62.0,56.0,20.43,SSE,160,1.0,2.0,80,0.00,,,0.06,weatherlink.com 1.10,2013-08-03 14:42:00,
2013-08-03 08:58:00,62.6,56.0,20.44,SSE,160,0.0,3.0,80,0.00,,,0.06,weatherlink.com 1.10,2013-08-03 14:58:00,
2013-08-03 09:13:00,63.5,56.0,20.44,SSE,160,0.0,2.0,76,0.00,,,0.06,weatherlink.com 1.10,2013-08-03 15:13:00,
2013-08-03 09:28:00,65.4,57.0,20.44,SSE,160,1.0,4.0,74,0.00,,,0.06,weatherlink.com 1.10,2013-08-03 15:28:00,
2013-08-03 09:43:00,66.2,57.0,20.44,SSE,160,0.0,5.0,71,0.00,,,0.06,weatherlink.com 1.10,2013-08-03 15:43:00,
2013-08-03 09:58:00,66.8,56.0,20.44,SSE,160,0.0,4.0,69,0.00,,,0.06,weatherlink.com 1.10,2013-08-03 15:58:00,
2013-08-03 10:13:00,68.1,57.0,20.43,SSE,160,0.0,4.0,67,0.00,,,0.06,weatherlink.com 1.10,2013-08-03 16:13:00,
2013-08-03 10:28:00,69.2,58.0,20.43,SSE,160,0.0,4.0,67,0.00,,,0.06,weatherlink.com 1.10,2013-08-03 16:28:00,
2013-08-03 10:43:00,69.5,57.0,20.43,SSW,196,3.0,7.0,65,0.00,,,0.06,weatherlink.com 1.10,2013-08-03 16:43:00,
2013-08-03 10:58:00,70.2,57.0,20.43,SSW,205,0.0,4.0,64,0.00,,,0.06,weatherlink.com 1.10,2013-08-03 16:58:00,
2013-08-03 11:13:00,71.2,56.0,20.43,SSW,209,2.0,4.0,59,0.00,,,0.06,weatherlink.com 1.10,2013-08-03 17:13:00,
2013-08-03 11:28:00,71.9,56.0,20.43,SW,223,0.0,3.0,58,0.00,,,0.06,weatherlink.com 1.10,2013-08-03 17:28:00,
2013-08-03 11:43:00,73.3,55.0,20.44,West,271,0.0,6.0,53,0.00,,,0.06,weatherlink.com 1.10,2013-08-03 17:43:00,
2013-08-03 11:58:00,74.2,55.0,20.43,WNW,284,0.0,5.0,52,0.00,,,0.06,weatherlink.com 1.10,2013-08-03 17:58:00,
2013-08-03 12:13:00,75.3,54.0,20.43,WNW,283,2.0,6.0,47,0.00,,,0.06,weatherlink.com 1.10,2013-08-03 18:13:00,
2013-08-03 12:28:00,76.3,55.0,20.43,West,279,1.0,8.0,48,0.00,,,0.06,weatherlink.com 1.10,2013-08-03 18:28:00,
2013-08-03 12:43:00,76.9,56.0,20.43,WSW,253,0.0,9.0,49,0.00,,,0.06,weatherlink.com 1.10,2013-08-03 18:43:00,
2013-08-03 12:58:00,77.3,56.0,20.42,WSW,253,0.0,5.0,48,0.00,,,0.06,weatherlink.com 1.10,2013-08-03 18:58:00,
2013-08-03 13:13:00,78.7,54.0,20.41,WNW,299,0.0,8.0,43,0.00,,,0.06,weatherlink.com 1.10,2013-08-03 19:13:00,
2013-08-03 13:28:00,78.9,56.0,20.40,NW,304,4.0,7.0,45,0.00,,,0.06,weatherlink.com 1.10,2013-08-03 19:28:00,
2013-08-03 13:43:00,78.7,56.0,20.40,WNW,298,0.0,7.0,45,0.00,,,0.06,weatherlink.com 1.10,2013-08-03 19:43:00,
2013-08-03 13:58:00,79.8,55.0,20.40,WNW,283,3.0,8.0,43,0.00,,,0.06,weatherlink.com 1.10,2013-08-03 19:58:00,
2013-08-03 14:13:00,80.1,54.0,20.39,WNW,284,0.0,7.0,40,0.00,,,0.06,weatherlink.com 1.10,2013-08-03 20:13:00,
2013-08-03 14:28:00,81.8,55.0,20.39,WSW,241,6.0,8.0,40,0.00,,,0.06,weatherlink.com 1.10,2013-08-03 20:28:00,
2013-08-03 14:43:00,80.7,54.0,20.38,WSW,237,0.0,6.0,40,0.00,,,0.06,weatherlink.com 1.10,2013-08-03 20:43:00,
2013-08-03 14:58:00,79.1,55.0,20.37,SSE,150,0.0,8.0,43,0.00,,,0.06,weatherlink.com 1.10,2013-08-03 20:58:00,
2013-08-03 15:13:00,79.6,55.0,20.37,SE,124,6.0,8.0,43,0.00,,,0.06,weatherlink.com 1.10,2013-08-03 21:13:00,
2013-08-03 15:29:00,80.2,55.0,20.37,SE,124,0.0,4.0,42,0.00,,,0.06,weatherlink.com 1.10,2013-08-03 21:29:00,
2013-08-03 15:43:00,80.2,54.0,20.36,ESE,111,3.0,5.0,41,0.00,,,0.06,weatherlink.com 1.10,2013-08-03 21:43:00,
2013-08-03 15:59:00,81.4,55.0,20.36,NE,56,5.0,8.0,40,0.00,,,0.06,weatherlink.com 1.10,2013-08-03 21:59:00,
2013-08-03 16:14:00,81.6,54.0,20.35,ENE,63,1.0,7.0,39,0.00,,,0.06,weatherlink.com 1.10,2013-08-03 22:14:00,
2013-08-03 16:29:00,81.3,54.0,20.35,ENE,71,0.0,6.0,39,0.00,,,0.06,weatherlink.com 1.10,2013-08-03 22:29:00,
2013-08-03 16:44:00,81.3,52.0,20.36,West,276,7.0,13.0,36,0.00,,,0.06,weatherlink.com 1.10,2013-08-03 22:44:00,
2013-08-03 16:58:00,81.0,52.0,20.35,NNW,327,3.0,13.0,37,0.00,,,0.06,weatherlink.com 1.10,2013-08-03 22:58:00,
2013-08-03 17:14:00,81.9,52.0,20.36,West,265,3.0,14.0,36,0.00,,,0.06,weatherlink.com 1.10,2013-08-03 23:14:00,
2013-08-03 17:29:00,82.3,53.0,20.35,West,281,5.0,11.0,37,0.00,,,0.06,weatherlink.com 1.10,2013-08-03 23:29:00,
2013-08-03 17:44:00,82.2,53.0,20.35,WNW,301,0.0,12.0,37,0.00,,,0.06,weatherlink.com 1.10,2013-08-03 23:44:00,
2013-08-03 17:59:00,82.4,53.0,20.34,WSW,249,8.0,14.0,36,0.00,,,0.06,weatherlink.com 1.10,2013-08-03 23:59:00,
2013-08-03 18:14:00,81.7,51.0,20.34,West,265,4.0,13.0,35,0.00,,,0.06,weatherlink.com 1.10,2013-08-04 00:14:00,
2013-08-03 18:29:00,81.3,51.0,20.35,West,270,3.0,12.0,35,0.00,,,0.06,weatherlink.com 1.10,2013-08-04 00:29:00,
2013-08-03 18:44:00,80.8,51.0,20.34,SW,220,3.0,11.0,36,0.00,,,0.06,weatherlink.com 1.10,2013-08-04 00:44:00,
2013-08-03 18:59:00,81.0,51.0,20.35,West,271,3.0,10.0,35,0.00,,,0.06,weatherlink.com 1.10,2013-08-04 00:59:00,
2013-08-03 19:14:00,79.0,51.0,20.35,WSW,245,2.0,11.0,37,0.00,,,0.06,weatherlink.com 1.10,2013-08-04 01:14:00,
2013-08-03 19:29:00,76.9,50.0,20.36,WSW,242,5.0,7.0,39,0.00,,,0.06,weatherlink.com 1.10,2013-08-04 01:29:00,
2013-08-03 19:44:00,75.3,51.0,20.38,WSW,243,0.0,1.0,43,0.00,,,0.06,weatherlink.com 1.10,2013-08-04 01:44:00,
2013-08-03 19:59:00,73.8,50.0,20.38,WSW,243,4.0,4.0,44,0.00,,,0.06,weatherlink.com 1.10,2013-08-04 01:59:00,
2013-08-03 20:14:00,72.8,50.0,20.39,WSW,242,0.0,3.0,45,0.00,,,0.06,weatherlink.com 1.10,2013-08-04 02:14:00,
2013-08-03 20:29:00,71.8,50.0,20.39,WSW,237,1.0,6.0,46,0.00,,,0.06,weatherlink.com 1.10,2013-08-04 02:29:00,
2013-08-03 20:44:00,71.7,49.0,20.39,SW,229,3.0,6.0,45,0.00,,,0.06,weatherlink.com 1.10,2013-08-04 02:44:00,
2013-08-03 20:59:00,71.1,49.0,20.39,SSW,203,1.0,7.0,46,0.00,,,0.06,weatherlink.com 1.10,2013-08-04 02:59:00,
2013-08-03 21:14:00,71.7,49.0,20.39,South,173,6.0,7.0,45,0.00,,,0.06,weatherlink.com 1.10,2013-08-04 03:14:00,
2013-08-03 21:29:00,71.4,49.0,20.40,South,170,5.0,8.0,45,0.00,,,0.06,weatherlink.com 1.10,2013-08-04 03:29:00,
2013-08-03 21:44:00,70.8,51.0,20.43,NNW,339,8.0,8.0,49,0.00,,,0.06,weatherlink.com 1.10,2013-08-04 03:44:00,
2013-08-03 21:59:00,70.0,51.0,20.45,WNW,284,0.0,4.0,52,0.00,,,0.06,weatherlink.com 1.10,2013-08-04 03:59:00,
2013-08-03 22:14:00,69.0,52.0,20.46,WNW,284,0.0,3.0,55,0.00,,,0.06,weatherlink.com 1.10,2013-08-04 04:14:00,
2013-08-03 22:29:00,67.4,51.0,20.46,West,280,4.0,5.0,57,0.00,,,0.06,weatherlink.com 1.10,2013-08-04 04:29:00,
2013-08-03 22:44:00,66.3,52.0,20.46,WSW,256,0.0,7.0,60,0.00,,,0.06,weatherlink.com 1.10,2013-08-04 04:44:00,
2013-08-03 22:59:00,65.6,52.0,20.46,WSW,255,3.0,5.0,62,0.00,,,0.06,weatherlink.com 1.10,2013-08-04 04:59:00,
2013-08-03 23:14:00,65.6,52.0,20.46,WSW,249,0.0,6.0,62,0.00,,,0.06,weatherlink.com 1.10,2013-08-04 05:14:00,
2013-08-03 23:29:00,65.4,52.0,20.45,WSW,246,0.0,4.0,62,0.00,,,0.06,weatherlink.com 1.10,2013-08-04 05:29:00,
2013-08-03 23:44:00,66.1,52.0,20.45,South,177,0.0,7.0,60,0.00,,,0.06,weatherlink.com 1.10,2013-08-04 05:44:00,
2013-08-03 23:59:00,66.3,51.0,20.45,SSE,168,4.0,7.0,59,0.00,,,0.06,weatherlink.com 1.10,2013-08-04 05:59:00,